Latest Weather Observations for Winton

IDQ60801

Issued at 8:32 am EST Monday 26 September 2016 (issued every 30 minutes, with the page automatically refreshed every 10 minutes)

About weather observations | Map of weather stations | Latest weather observations for QLD | Other Formats
Station Details ID: 037039 Name: WINTON AIRPORT Lat: -22.36 Lon: 143.08 Height: 192.2 m
Data from the previous 72 hours. | See also: Recent months at Winton
Date/Time
EST
Temp
°C
App
Temp
°C
Dew
Point
°C
Rel
Hum
%
Delta-T
°C
Wind Press
QNH
hPa
Press
MSL
hPa
Rain since
9am
mm
Dir  Spd
km/h
Gust
km/h
Spd
kts
Gust
kts
26/08:30am 19.7 16.7 7.8 46 6.2 S 13 17 7 9 1017.5 1016.6 0.0
26/08:00am 17.3 15.8 9.0 58 4.3 S 7 11 4 6 1017.3 1016.4 0.0
26/07:30am 15.1 13.9 9.7 70 2.8 SSW 6 7 3 4 1016.7 1015.8 0.0
26/07:00am 13.3 12.2 9.9 80 1.8 SSW 6 6 3 3 1016.4 1015.5 0.0
26/06:30am 11.8 10.2 8.8 82 1.5 SSW 7 7 4 4 1016.2 1015.3 0.0
26/06:00am 12.2 10.8 8.9 80 1.7 S 6 7 3 4 1015.8 1015.0 0.0
26/05:30am 12.1 10.6 9.1 82 1.5 SSW 7 9 4 5 1015.2 1014.4 0.0
26/05:00am 12.4 10.7 9.8 84 1.3 SSW 9 11 5 6 1014.8 1014.0 0.0
26/04:30am 13.4 11.5 10.6 83 1.5 SW 11 13 6 7 1014.5 1013.7 0.0
26/04:00am 13.3 12.1 11.5 89 1.0 WSW 9 11 5 6 1014.3 1013.5 0.0
26/03:30am 13.7 12.4 11.2 85 1.3 SW 9 11 5 6 1014.2 1013.4 0.0
26/03:00am 14.6 14.1 12.1 85 1.4 SW 6 6 3 3 1014.2 1013.4 0.0
26/02:30am 14.7 14.1 11.8 83 1.6 SW 6 7 3 4 1014.2 1013.4 0.0
26/02:00am 14.8 14.6 11.9 83 1.6 S 4 4 2 2 1014.2 1013.4 0.0
26/01:30am 14.7 14.9 12.0 84 1.5 S 2 2 1 1 1014.6 1013.8 0.0
26/01:00am 14.9 15.1 11.9 82 1.6 SSE 2 4 1 2 1014.8 1014.0 0.0
26/12:30am 15.6 15.5 12.2 80 1.9 S 4 6 2 3 1015.1 1014.3 0.0
26/12:00am 16.5 17.4 12.8 79 2.1 CALM 0 0 0 0 1015.2 1014.4 0.0
 
Date/Time
EST
Temp
°C
App
Temp
°C
Dew
Point
°C
Rel
Hum
%
Delta-T
°C
Wind Press
QNH
hPa
Press
MSL
hPa
Rain since
9am
mm
Dir  Spd
km/h
Gust
km/h
Spd
kts
Gust
kts
25/11:30pm 17.4 18.0 11.9 70 3.0 CALM 0 0 0 0 1015.3 1014.5 0.0
25/11:00pm 17.7 18.6 13.0 74 2.7 CALM 0 4 0 2 1015.3 1014.5 0.0
25/10:30pm 17.5 18.3 12.4 72 2.8 CALM 0 0 0 0 1015.5 1014.7 0.0
25/10:00pm 18.6 18.1 10.7 60 4.3 ENE 4 4 2 2 1015.4 1014.6 0.0
25/09:30pm 19.0 18.6 11.1 60 4.3 E 4 4 2 2 1015.1 1014.3 0.0
25/09:00pm 18.5 17.7 11.6 64 3.8 ENE 7 9 4 5 1014.8 1014.0 0.0
25/08:30pm 18.5 17.8 12.0 66 3.6 ENE 7 9 4 5 1014.5 1013.7 0.0
25/08:00pm 19.7 18.7 10.9 57 4.8 ESE 7 9 4 5 1014.1 1013.3 0.0
25/07:30pm 20.6 19.7 10.7 53 5.4 ESE 6 7 3 4 1013.9 1013.1 0.0
25/07:00pm 20.0 18.9 12.0 60 4.5 SSW 9 9 5 5 1013.6 1012.8 0.0
25/06:30pm 21.6 20.6 11.0 51 5.9 SSW 7 9 4 5 1013.2 1012.4 0.0
25/06:00pm 23.7 21.8 8.9 39 8.0 SSW 9 13 5 7 1012.8 1011.9 0.0
25/05:30pm 25.3 22.2 7.4 32 9.5 S 13 19 7 10 1012.5 1011.6 0.0
25/05:00pm 25.9 22.0 7.0 30 10.0 SSW 17 22 9 12 1012.5 1011.6 0.0
25/04:30pm 26.1 22.1 8.1 32 9.7 S 19 24 10 13 1012.4 1011.5 0.0
25/04:00pm 26.4 23.0 9.3 34 9.5 SSW 17 26 9 14 1012.3 1011.4 0.0
25/03:30pm 25.9 23.5 10.1 37 8.8 S 13 20 7 11 1012.3 1011.4 0.0
25/03:00pm 26.8 23.8 10.5 36 9.2 S 17 24 9 13 1012.3 1011.4 0.0
25/02:30pm 25.8 22.7 10.4 38 8.7 S 17 24 9 13 1012.2 1011.3 0.0
25/02:00pm 26.2 23.4 11.5 40 8.4 SSW 17 26 9 14 1012.6 1011.7 0.0
25/01:30pm 26.5 24.2 11.8 40 8.5 SSW 15 22 8 12 1013.2 1012.4 0.0
25/01:00pm 26.3 23.4 12.4 42 8.1 SSW 19 26 10 14 1013.6 1012.8 0.0
25/12:30pm 25.9 23.3 12.0 42 8.0 S 17 24 9 13 1013.8 1013.0 0.0
25/12:00pm 25.3 22.3 11.8 43 7.8 S 19 26 10 14 1014.2 1013.4 0.0
25/11:30am 24.3 21.2 12.3 47 6.9 S 20 30 11 16 1014.2 1013.4 0.0
25/11:00am 24.6 21.8 12.5 46 7.0 SSE 19 26 10 14 1014.6 1013.8 0.0
25/10:30am 24.9 22.3 13.1 48 6.9 SSE 19 26 10 14 1014.6 1013.8 0.0
25/10:00am 23.9 19.9 11.9 47 6.9 SE 24 30 13 16 1014.6 1013.8 0.0
25/09:30am 22.6 19.0 11.7 50 6.2 SSE 22 30 12 16 1014.3 1013.5 0.0
25/09:00am 22.9 19.3 11.9 50 6.3 SSE 22 33 12 18 1014.3 1013.5 0.0
25/08:30am 22.8 19.8 12.7 53 5.8 SSE 20 30 11 16 1013.9 1013.1 0.0
25/08:00am 21.1 20.4 14.3 65 4.0 S 11 15 6 8 1013.5 1012.7 0.0
25/07:30am 19.7 19.8 14.5 72 3.0 SSW 7 11 4 6 1013.2 1012.4 0.0
25/07:00am 18.1 17.9 14.6 80 2.0 SW 9 11 5 6 1012.7 1011.8 0.0
25/06:30am 17.0 17.0 13.5 80 2.0 S 6 7 3 4 1012.0 1011.1 0.0
25/06:00am 17.4 17.5 13.9 80 2.0 SSW 6 9 3 5 1011.6 1010.7 0.0
25/05:30am 17.3 16.4 13.8 80 2.0 SW 11 13 6 7 1011.4 1010.5 0.0
25/05:00am 18.0 17.6 13.1 73 2.8 SE 7 9 4 5 1010.6 1009.7 0.0
25/04:30am 18.0 17.6 12.9 72 2.9 SSE 7 9 4 5 1010.4 1009.6 0.0
25/04:00am 17.9 17.5 13.0 73 2.8 S 7 9 4 5 1010.4 1009.6 0.0
25/03:30am 19.3 17.7 12.8 66 3.7 S 13 19 7 10 1010.3 1009.5 0.0
25/03:00am 19.8 17.8 12.8 64 4.0 S 15 20 8 11 1010.6 1009.7 0.0
25/02:30am 20.1 17.2 12.8 63 4.2 S 20 33 11 18 1010.4 1009.6 0.0
25/02:00am 19.9 17.1 13.1 65 3.9 SSW 20 28 11 15 1010.6 1009.7 0.0
25/01:30am 19.7 16.8 12.9 65 3.9 SW 20 26 11 14 1010.4 1009.6 0.0
25/01:00am 20.4 17.6 12.6 61 4.4 W 19 48 10 26 1010.1 1009.3 0.0
25/12:30am 17.3 16.2 13.2 77 2.3 NE 11 13 6 7 1009.3 1008.5 0.0
25/12:00am 18.0 17.4 13.5 75 2.6 NE 9 9 5 5 1009.4 1008.6 0.0
 
Date/Time
EST
Temp
°C
App
Temp
°C
Dew
Point
°C
Rel
Hum
%
Delta-T
°C
Wind Press
QNH
hPa
Press
MSL
hPa
Rain since
9am
mm
Dir  Spd
km/h
Gust
km/h
Spd
kts
Gust
kts
24/11:30pm 18.6 18.1 13.9 74 2.7 NNE 9 9 5 5 1009.6 1008.8 0.0
24/11:00pm 18.9 18.5 14.0 73 2.8 NNE 9 11 5 6 1009.9 1009.1 0.0
24/10:30pm 19.8 20.0 14.2 70 3.3 NE 6 7 3 4 1010.0 1009.2 0.0
24/10:00pm 19.2 18.8 14.2 73 2.9 NE 9 9 5 5 1010.1 1009.3 0.0
24/09:30pm 21.0 21.1 13.9 64 4.1 ENE 6 6 3 3 1010.2 1009.4 0.0
24/09:00pm 19.8 19.9 14.4 71 3.2 E 7 9 4 5 1010.1 1009.3 0.0
24/08:30pm 21.8 22.0 13.2 58 5.0 SE 4 4 2 2 1010.1 1009.3 0.0
24/08:00pm 23.0 23.1 13.8 56 5.4 S 6 6 3 3 1009.8 1009.0 0.0
24/07:30pm 22.9 23.6 14.5 59 5.0 SSE 4 4 2 2 1009.4 1008.6 0.0
24/07:00pm 23.4 24.0 15.2 60 5.0 SW 6 6 3 3 1009.1 1008.3 0.0
24/06:30pm 24.6 25.5 15.0 55 5.8 WSW 4 6 2 3 1008.7 1007.9 0.0
24/06:00pm 27.4 28.2 14.8 46 7.7 W 4 6 2 3 1008.3 1007.4 0.0
24/05:30pm 28.6 27.6 10.3 32 10.4 W 6 7 3 4 1008.2 1007.3 0.0
24/05:00pm 29.1 27.6 9.3 29 11.1 WNW 7 9 4 5 1008.1 1007.2 0.0
24/04:30pm 29.3 27.5 7.8 26 11.8 WNW 7 11 4 6 1007.9 1007.0 0.0
24/04:00pm 28.8 26.5 7.4 26 11.6 WNW 9 15 5 8 1008.0 1007.1 0.0
24/03:30pm 29.1 26.9 7.7 26 11.7 W 9 15 5 8 1008.2 1007.3 0.0
24/03:00pm 28.6 27.3 7.8 27 11.4 WSW 4 11 2 6 1008.5 1007.7 0.0
24/02:30pm 28.7 27.1 7.9 27 11.4 WNW 6 11 3 6 1009.1 1008.3 0.0
24/02:00pm 28.4 26.4 7.1 26 11.5 W 7 15 4 8 1009.6 1008.8 0.0
24/01:30pm 27.9 25.2 7.2 27 11.1 W 11 20 6 11 1010.2 1009.4 0.0
24/01:00pm 27.8 25.8 8.6 30 10.6 WNW 9 17 5 9 1010.7 1009.8 0.0
24/12:30pm 27.0 24.8 8.0 30 10.3 WNW 9 15 5 8 1011.2 1010.3 0.0
24/12:00pm 26.2 24.2 7.3 30 10.1 W 7 13 4 7 1011.5 1010.6 0.0
24/11:30am 25.4 23.8 8.8 35 9.1 NW 7 13 4 7 1012.0 1011.1 0.0
24/11:00am 24.6 24.4 11.9 45 7.3 NW 4 6 2 3 1012.4 1011.5 0.0
24/10:30am 23.5 23.5 11.2 46 6.9 N 2 4 1 2 1012.8 1011.9 0.0
24/10:00am 23.0 23.2 11.7 49 6.4 S 2 6 1 3 1012.8 1011.9 0.0
24/09:30am 21.4 21.2 11.7 54 5.5 E 4 6 2 3 1013.1 1012.3 0.0
24/09:00am 20.8 19.3 13.0 61 4.5 ENE 13 20 7 11 1012.6 1011.7 0.0
24/08:30am 18.2 17.2 13.3 73 2.8 ENE 11 13 6 7 1012.4 1011.5 0.0
24/08:00am 15.9 15.4 12.1 78 2.1 E 6 9 3 5 1013.0 1012.1 0.0
24/07:30am 14.0 14.0 11.0 82 1.6 E 2 4 1 2 1012.7 1011.8 0.0
24/07:00am 12.1 11.2 10.7 91 0.7 ENE 6 6 3 3 1011.9 1011.0 0.0
24/06:30am 10.6 8.8 9.5 93 0.6 NE 9 11 5 6 1011.6 1010.7 0.0
24/06:00am 10.4 8.3 9.6 95 0.4 NE 11 11 6 6 1011.4 1010.5 0.0
24/05:30am 10.4 9.1 9.2 92 0.6 ENE 6 7 3 4 1011.3 1010.4 0.0
24/05:00am 10.6 9.8 9.7 94 0.5 NE 4 4 2 2 1010.9 1010.0 0.0
24/04:30am 10.4 7.8 9.5 94 0.5 NE 13 15 7 8 1010.4 1009.6 0.0
24/04:00am 10.7 8.6 9.6 93 0.6 NE 11 11 6 6 1010.8 1009.9 0.0
24/03:30am 11.1 9.3 9.5 90 0.8 ENE 9 11 5 6 1010.9 1010.0 0.0
24/03:00am 11.7 9.6 9.9 89 0.9 ENE 11 11 6 6 1011.2 1010.3 0.0
24/02:30am 11.8 9.7 9.9 88 1.0 ENE 11 11 6 6 1011.4 1010.5 0.0
24/02:00am 12.4 11.2 10.3 87 1.1 ENE 7 9 4 5 1011.6 1010.7 0.0
24/01:30am 12.5 11.4 10.6 88 1.0 ENE 7 9 4 5 1011.5 1010.6 0.0
24/01:00am 12.9 11.8 10.8 87 1.1 ENE 7 9 4 5 1011.6 1010.7 0.0
24/12:30am 13.5 12.7 11.0 85 1.3 E 6 6 3 3 1011.6 1010.7 0.0
24/12:00am 13.0 12.0 11.1 88 1.0 ENE 7 9 4 5 1011.7 1010.8 0.0
 
Date/Time
EST
Temp
°C
App
Temp
°C
Dew
Point
°C
Rel
Hum
%
Delta-T
°C
Wind Press
QNH
hPa
Press
MSL
hPa
Rain since
9am
mm
Dir  Spd
km/h
Gust
km/h
Spd
kts
Gust
kts
23/11:30pm 14.0 13.2 11.0 82 1.6 ENE 6 6 3 3 1011.8 1010.9 0.0
23/11:00pm 14.9 14.1 11.1 78 2.0 ESE 6 6 3 3 1011.9 1011.0 0.0
23/10:30pm 15.7 14.9 11.1 74 2.5 ESE 6 6 3 3 1012.1 1011.2 0.0
23/10:00pm 16.2 15.3 10.7 70 3.0 SE 6 7 3 4 1012.2 1011.3 0.0
23/09:30pm 17.6 16.6 10.9 65 3.6 SSE 7 9 4 5 1012.2 1011.3 0.0
23/09:00pm 16.8 16.0 11.7 72 2.8 SSE 7 11 4 6 1012.3 1011.4 0.0
23/08:30pm 17.3 16.2 12.0 71 2.9 S 9 11 5 6 1012.2 1011.3 0.0
23/08:00pm 18.5 17.2 11.3 63 4.0 S 9 11 5 6 1012.1 1011.2 0.0
23/07:30pm 19.6 18.9 11.4 59 4.5 SSE 6 9 3 5 1011.9 1011.0 0.0
23/07:00pm 19.4 18.9 12.7 65 3.8 SW 7 9 4 5 1011.6 1010.7 0.0
23/06:30pm 22.0 21.9 10.8 49 6.2 WNW 2 4 1 2 1011.2 1010.3 0.0
23/06:00pm 23.7 23.1 10.4 43 7.4 WNW 4 6 2 3 1011.1 1010.2 0.0
23/05:30pm 24.9 23.5 7.1 32 9.4 WSW 4 6 2 3 1011.0 1010.1 0.0
23/05:00pm 25.2 23.8 7.3 32 9.5 WSW 4 7 2 4 1010.9 1010.0 0.0
23/04:30pm 25.0 22.8 6.2 30 9.8 WSW 7 13 4 7 1010.9 1010.0 0.0
23/04:00pm 25.3 23.8 9.2 36 8.9 SSW 7 11 4 6 1010.9 1010.0 0.0
23/03:30pm 24.7 22.7 6.9 32 9.4 SSW 7 11 4 6 1011.0 1010.1 0.0
23/03:00pm 24.6 22.8 8.1 35 8.9 WSW 7 15 4 8 1011.3 1010.4 0.0
23/02:30pm 23.8 21.4 7.0 34 8.8 SW 9 13 5 7 1011.5 1010.6 0.0
23/02:00pm 23.8 20.8 6.1 32 9.1 SSW 11 17 6 9 1012.1 1011.2 0.0
23/01:30pm 23.5 21.9 8.0 37 8.3 S 6 13 3 7 1012.8 1011.9 0.0
23/01:00pm 23.2 21.4 8.1 38 8.0 WSW 7 13 4 7 1013.4 1012.6 0.0
23/12:30pm 22.9 21.5 9.0 41 7.5 S 6 9 3 5 1013.8 1013.0 0.0
23/12:00pm 22.0 20.2 7.8 40 7.5 ESE 7 11 4 6 1014.4 1013.6 0.0
23/11:30am 21.8 19.8 8.7 43 7.0 ESE 9 17 5 9 1014.9 1014.1 0.0
23/11:00am 20.9 19.1 7.9 43 6.8 E 7 15 4 8 1015.2 1014.4 0.0
23/10:30am 20.9 18.7 9.2 47 6.3 ESE 11 15 6 8 1015.7 1014.9 0.0
23/10:00am 19.9 17.5 10.0 53 5.4 ESE 13 19 7 10 1016.2 1015.3 0.0
23/09:30am 19.3 16.3 10.6 57 4.7 ESE 17 20 9 11 1016.4 1015.5 0.0
23/09:00am 17.9 14.9 10.8 63 3.9 SE 17 20 9 11 1016.5 1015.6 0.0

Other Formats:

Comma delimited format used in spreadsheet applications
http://www.bom.gov.au/fwo/IDQ60801/IDQ60801.94342.axf

JavaScript Object Notation format (JSON) in row-major order
http://www.bom.gov.au/fwo/IDQ60801/IDQ60801.94342.json